createdAt,value
2019-05-12T00:02:14.382Z,10.90
2019-05-12T00:04:44.749Z,10.80
2019-05-12T00:07:15.238Z,10.80
2019-05-12T00:09:47.449Z,10.80
2019-05-12T00:12:18.269Z,10.80
2019-05-12T00:14:48.532Z,10.90
2019-05-12T00:19:47.955Z,10.90
2019-05-12T00:22:18.165Z,11.00
2019-05-12T00:24:48.330Z,11.00
2019-05-12T00:27:19.467Z,11.00
2019-05-12T00:29:49.807Z,11.00
2019-05-12T00:32:20.408Z,11.00
2019-05-12T00:34:50.766Z,11.10
2019-05-12T00:37:21.675Z,11.00
2019-05-12T00:39:52.185Z,11.10
2019-05-12T00:42:22.456Z,11.10
2019-05-12T00:44:52.875Z,11.10
2019-05-12T00:47:23.380Z,11.10
2019-05-12T00:49:53.667Z,11.10
2019-05-12T00:52:24.161Z,11.10
2019-05-12T00:54:54.595Z,11.10
2019-05-12T00:57:24.984Z,11.00
2019-05-12T00:59:55.408Z,11.00
2019-05-12T01:04:58.039Z,11.00
2019-05-12T01:07:27.735Z,10.90
2019-05-12T01:12:28.499Z,10.90
2019-05-12T01:14:58.534Z,10.90
2019-05-12T01:17:28.248Z,10.90
2019-05-12T01:19:58.396Z,10.90
2019-05-12T01:22:28.451Z,10.90
2019-05-12T01:24:59.020Z,10.90
2019-05-12T01:27:29.387Z,10.80
2019-05-12T01:29:59.950Z,10.80
2019-05-12T01:32:33.531Z,10.90
2019-05-12T01:35:04.181Z,10.90
2019-05-12T01:37:34.606Z,10.90
2019-05-12T01:40:05.168Z,10.80
2019-05-12T01:42:38.012Z,10.80
2019-05-12T01:45:08.964Z,10.90
2019-05-12T01:47:38.241Z,10.80
2019-05-12T01:50:09.167Z,10.80
2019-05-12T01:52:38.572Z,10.80
2019-05-12T01:55:08.925Z,10.70
2019-05-12T01:57:39.259Z,10.70
2019-05-12T02:00:11.633Z,10.70
2019-05-12T02:02:42.438Z,10.70
2019-05-12T02:05:13.171Z,10.70
2019-05-12T02:07:48.823Z,10.70
2019-05-12T02:10:19.475Z,10.60
2019-05-12T02:12:50.085Z,10.60
2019-05-12T02:15:20.919Z,10.50
2019-05-12T02:17:51.436Z,10.60
2019-05-12T02:20:22.182Z,10.60
2019-05-12T02:22:52.504Z,10.50
2019-05-12T02:25:23.054Z,10.50
2019-05-12T02:27:53.463Z,10.50
2019-05-12T02:30:24.111Z,10.50
2019-05-12T02:32:58.765Z,10.60
2019-05-12T02:35:25.057Z,10.60
2019-05-12T02:37:55.604Z,10.60
2019-05-12T02:40:26.133Z,10.60
2019-05-12T02:42:56.509Z,10.50
2019-05-12T02:45:27.076Z,10.50
2019-05-12T02:47:57.517Z,10.50
2019-05-12T02:50:35.315Z,10.50
2019-05-12T02:53:05.231Z,10.50
2019-05-12T02:55:35.360Z,10.40
2019-05-12T02:58:06.109Z,10.40
2019-05-12T03:00:36.311Z,10.40
2019-05-12T03:03:06.806Z,10.40
2019-05-12T03:05:37.517Z,10.40
2019-05-12T03:08:07.927Z,10.40
2019-05-12T03:10:38.508Z,10.40
2019-05-12T03:13:09.003Z,10.30
2019-05-12T03:15:39.356Z,10.30
2019-05-12T03:18:09.760Z,10.40
2019-05-12T03:20:40.212Z,10.30
2019-05-12T03:23:10.700Z,10.30
2019-05-12T03:28:10.983Z,10.30
2019-05-12T03:30:41.445Z,10.30
2019-05-12T03:33:18.315Z,10.30
2019-05-12T03:35:50.729Z,10.20
2019-05-12T03:38:14.913Z,10.20
2019-05-12T03:40:45.067Z,10.20
2019-05-12T03:43:14.773Z,10.20
2019-05-12T03:45:45.195Z,10.20
2019-05-12T03:48:15.323Z,10.10
2019-05-12T03:50:46.314Z,10.10
2019-05-12T03:53:16.260Z,10.10
2019-05-12T03:55:47.313Z,10.00
2019-05-12T03:58:17.109Z,9.90
2019-05-12T04:00:47.666Z,9.90
2019-05-12T04:03:18.064Z,9.80
2019-05-12T04:05:48.496Z,9.80
2019-05-12T04:08:19.130Z,9.70
2019-05-12T04:10:49.561Z,9.70
2019-05-12T04:13:20.164Z,9.60
2019-05-12T04:15:50.716Z,9.60
2019-05-12T04:18:24.538Z,9.60
2019-05-12T04:20:54.538Z,9.50
2019-05-12T04:23:24.743Z,9.50
2019-05-12T04:26:06.587Z,9.40
2019-05-12T04:28:24.575Z,9.20
2019-05-12T04:30:54.551Z,8.90
2019-05-12T04:33:25.704Z,8.60
2019-05-12T04:35:55.467Z,8.40
2019-05-12T04:38:25.344Z,8.20
2019-05-12T04:40:56.101Z,8.10
2019-05-12T04:43:26.642Z,8.00
2019-05-12T04:45:57.171Z,7.90
2019-05-12T04:48:27.696Z,7.80
2019-05-12T04:50:58.461Z,7.70
2019-05-12T04:53:28.896Z,7.70
2019-05-12T04:56:10.548Z,7.70
2019-05-12T04:58:30.189Z,7.60
2019-05-12T05:01:00.791Z,7.60
2019-05-12T05:03:31.255Z,7.50
2019-05-12T05:06:04.290Z,7.40
2019-05-12T05:08:34.649Z,7.40
2019-05-12T05:11:04.040Z,7.40
2019-05-12T05:13:36.782Z,7.30
2019-05-12T05:16:05.404Z,7.20
2019-05-12T05:18:34.470Z,7.20
2019-05-12T05:21:04.797Z,7.10
2019-05-12T05:23:35.092Z,7.00
2019-05-12T05:26:19.803Z,6.90
2019-05-12T05:28:36.227Z,6.80
2019-05-12T05:31:06.689Z,6.80
2019-05-12T05:33:37.225Z,6.80
2019-05-12T05:36:08.913Z,6.70
2019-05-12T05:38:38.163Z,6.70
2019-05-12T05:41:10.541Z,6.70
2019-05-12T05:43:39.025Z,6.70
2019-05-12T05:46:09.696Z,6.70
2019-05-12T05:48:40.288Z,6.70
2019-05-12T05:51:10.828Z,6.80
2019-05-12T05:53:41.260Z,6.80
2019-05-12T05:56:14.228Z,6.80
2019-05-12T05:58:49.576Z,6.80
2019-05-12T06:01:13.785Z,6.80
2019-05-12T06:03:44.177Z,6.80
2019-05-12T06:06:15.426Z,6.80
2019-05-12T06:08:48.604Z,6.80
2019-05-12T06:11:23.902Z,6.80
2019-05-12T06:13:49.547Z,6.80
2019-05-12T06:16:22.039Z,6.80
2019-05-12T06:18:50.309Z,6.80
2019-05-12T06:21:20.960Z,6.80
2019-05-12T06:23:51.320Z,6.90
2019-05-12T06:26:30.950Z,6.90
2019-05-12T06:28:55.939Z,6.90
2019-05-12T06:31:25.094Z,6.90
2019-05-12T06:33:53.805Z,6.90
2019-05-12T06:36:27.233Z,6.90
2019-05-12T06:38:54.724Z,6.90
2019-05-12T06:41:25.933Z,6.90
2019-05-12T06:43:55.471Z,6.90
2019-05-12T06:46:26.025Z,6.90
2019-05-12T06:49:00.755Z,6.90
2019-05-12T06:51:27.325Z,6.90
2019-05-12T06:54:00.818Z,6.80
2019-05-12T06:56:28.139Z,6.80
2019-05-12T06:59:01.012Z,6.80
2019-05-12T07:01:28.918Z,6.80
2019-05-12T07:04:00.616Z,6.70
2019-05-12T07:06:29.641Z,6.70
2019-05-12T07:09:06.448Z,6.70
2019-05-12T07:11:41.697Z,6.70
2019-05-12T07:14:07.322Z,6.80
2019-05-12T07:16:33.926Z,6.80
2019-05-12T07:19:07.552Z,6.80
2019-05-12T07:21:33.812Z,6.80
2019-05-12T07:24:09.110Z,6.80
2019-05-12T07:26:34.711Z,6.80
2019-05-12T07:29:10.731Z,6.80
2019-05-12T07:31:41.309Z,6.80
2019-05-12T07:34:13.639Z,6.80
2019-05-12T07:36:44.300Z,6.80
2019-05-12T07:39:13.612Z,6.80
2019-05-12T07:41:50.905Z,6.80
2019-05-12T07:44:15.105Z,6.90
2019-05-12T07:46:49.484Z,6.90
2019-05-12T07:49:16.160Z,6.90
2019-05-12T07:51:49.942Z,6.90
2019-05-12T07:54:17.348Z,6.90
2019-05-12T07:56:47.739Z,6.90
2019-05-12T07:59:18.084Z,6.90
2019-05-12T08:01:51.880Z,6.90
2019-05-12T08:04:18.898Z,6.90
2019-05-12T08:06:49.770Z,6.90
2019-05-12T08:11:49.951Z,6.90
2019-05-12T08:14:25.801Z,6.90
2019-05-12T08:16:50.948Z,6.90
2019-05-12T08:22:13.582Z,7.00
2019-05-12T08:24:47.324Z,6.90
2019-05-12T08:27:14.334Z,6.90
2019-05-12T08:29:44.028Z,6.90
2019-05-12T08:32:15.934Z,6.90
2019-05-12T08:34:45.071Z,7.00
2019-05-12T08:37:15.519Z,7.00
2019-05-12T08:39:45.793Z,7.00
2019-05-12T08:42:16.372Z,7.00
2019-05-12T08:44:46.715Z,7.00
2019-05-12T08:47:17.223Z,7.10
2019-05-12T08:49:55.142Z,7.10
2019-05-12T08:52:18.483Z,7.10
2019-05-12T08:54:49.539Z,7.20
2019-05-12T08:57:19.433Z,7.20
2019-05-12T08:59:56.752Z,7.30
2019-05-12T09:02:20.399Z,7.30
2019-05-12T09:04:51.782Z,7.30
2019-05-12T09:07:21.457Z,7.40
2019-05-12T09:09:53.393Z,7.50
2019-05-12T09:12:23.293Z,7.50
2019-05-12T09:14:54.594Z,7.50
2019-05-12T09:17:23.334Z,7.60
2019-05-12T09:19:55.092Z,7.70
2019-05-12T09:22:24.226Z,7.70
2019-05-12T09:24:58.329Z,7.60
2019-05-12T09:27:25.371Z,7.70
2019-05-12T09:29:59.126Z,7.80
2019-05-12T09:32:26.234Z,7.90
2019-05-12T09:34:58.271Z,7.90
2019-05-12T09:37:30.976Z,8.10
2019-05-12T09:42:29.976Z,8.30
2019-05-12T09:47:27.765Z,8.30
2019-05-12T09:49:57.897Z,8.20
2019-05-12T09:52:28.482Z,8.30
2019-05-12T09:57:34.699Z,8.30
2019-05-12T10:00:06.557Z,8.30
2019-05-12T10:02:36.947Z,8.20
2019-05-12T10:05:07.772Z,8.20
2019-05-12T10:07:38.089Z,8.10
2019-05-12T10:10:08.800Z,8.10
2019-05-12T10:12:46.242Z,8.10
2019-05-12T10:15:10.027Z,8.10
2019-05-12T10:17:40.351Z,8.10
2019-05-12T10:20:11.101Z,8.00
2019-05-12T10:22:43.524Z,8.10
2019-05-12T10:25:14.189Z,8.00
2019-05-12T10:27:44.268Z,8.00
2019-05-12T10:30:17.024Z,7.90
2019-05-12T10:32:43.781Z,8.00
2019-05-12T10:35:20.845Z,7.90
2019-05-12T10:37:47.284Z,7.90
2019-05-12T10:40:15.733Z,7.90
2019-05-12T10:42:49.539Z,7.90
2019-05-12T10:45:20.368Z,7.90
2019-05-12T10:47:47.416Z,7.90
2019-05-12T10:50:17.946Z,7.90
2019-05-12T10:52:48.772Z,7.90
2019-05-12T10:55:19.437Z,7.90
2019-05-12T10:57:53.024Z,7.90
2019-05-12T11:00:25.073Z,8.00
2019-05-12T11:02:53.361Z,8.00
2019-05-12T11:05:23.303Z,7.90
2019-05-12T11:07:53.878Z,7.90
2019-05-12T11:10:23.323Z,7.80
2019-05-12T11:12:52.834Z,7.80
2019-05-12T11:15:24.551Z,7.90
2019-05-12T11:17:58.459Z,7.90
2019-05-12T11:20:28.898Z,7.90
2019-05-12T11:22:59.284Z,7.90
2019-05-12T11:25:29.508Z,8.00
2019-05-12T11:27:59.935Z,8.00
2019-05-12T11:30:30.060Z,8.10
2019-05-12T11:35:30.293Z,8.10
2019-05-12T11:38:04.558Z,8.00
2019-05-12T11:40:34.659Z,8.00
2019-05-12T11:43:04.249Z,7.90
2019-05-12T11:45:33.970Z,7.90
2019-05-12T11:48:09.954Z,7.90
2019-05-12T11:50:34.850Z,7.90
2019-05-12T11:53:05.653Z,7.80
2019-05-12T11:55:36.338Z,7.90
2019-05-12T11:58:11.389Z,7.90
2019-05-12T12:00:37.574Z,7.90
2019-05-12T12:03:17.867Z,7.90
2019-05-12T12:05:38.615Z,7.90
2019-05-12T12:10:39.986Z,8.00
2019-05-12T12:13:08.980Z,8.10
2019-05-12T12:15:39.379Z,8.10
2019-05-12T12:18:14.930Z,8.00
2019-05-12T12:20:40.015Z,8.00
2019-05-12T12:23:11.299Z,8.10
2019-05-12T12:25:42.975Z,8.10
2019-05-12T12:30:41.099Z,8.30
2019-05-12T12:33:14.109Z,8.20
2019-05-12T12:35:44.525Z,8.20
2019-05-12T12:38:14.093Z,8.20
2019-05-12T12:40:44.142Z,8.20
2019-05-12T12:43:14.948Z,8.30
2019-05-12T12:45:50.017Z,8.50
2019-05-12T12:50:50.095Z,9.00
2019-05-12T12:53:20.981Z,9.10
2019-05-12T12:55:53.565Z,9.20
2019-05-12T12:58:28.337Z,9.20
2019-05-12T13:00:56.252Z,9.10
2019-05-12T13:03:25.695Z,9.00
2019-05-12T13:05:54.300Z,8.90
2019-05-12T13:08:24.662Z,8.90
2019-05-12T13:10:54.552Z,9.00
2019-05-12T13:13:24.916Z,8.90
2019-05-12T13:15:55.321Z,8.80
2019-05-12T13:18:32.683Z,8.70
2019-05-12T13:20:57.987Z,8.70
2019-05-12T13:23:37.286Z,8.70
2019-05-12T13:25:57.311Z,8.70
2019-05-12T13:28:27.801Z,8.60
2019-05-12T13:31:08.322Z,8.50
2019-05-12T13:33:28.891Z,8.50
2019-05-12T13:35:59.334Z,8.60
2019-05-12T13:38:30.370Z,8.70
2019-05-12T13:41:00.309Z,8.70
2019-05-12T13:43:30.767Z,8.60
2019-05-12T13:46:01.263Z,8.60
2019-05-12T13:48:31.601Z,8.70
2019-05-12T13:51:10.410Z,8.70
2019-05-12T13:53:33.514Z,8.80
2019-05-12T13:56:04.848Z,8.70
2019-05-12T13:58:40.316Z,8.70
2019-05-12T14:01:19.086Z,8.70
2019-05-12T14:03:34.801Z,8.70
2019-05-12T14:06:05.396Z,8.60
2019-05-12T14:08:35.788Z,8.50
2019-05-12T14:11:06.196Z,8.50
2019-05-12T14:13:36.473Z,8.30
2019-05-12T14:16:07.092Z,8.10
2019-05-12T14:18:37.235Z,8.10
2019-05-12T14:21:07.604Z,8.00
2019-05-12T14:23:37.954Z,8.00
2019-05-12T14:26:09.429Z,7.90
2019-05-12T14:28:39.586Z,8.00
2019-05-12T14:31:22.738Z,8.20
2019-05-12T14:36:13.619Z,8.70
2019-05-12T14:38:40.257Z,9.20
2019-05-12T14:41:12.354Z,9.70
2019-05-12T14:46:10.676Z,9.70
2019-05-12T14:48:46.473Z,9.90
2019-05-12T14:51:13.962Z,10.50
2019-05-12T14:53:44.368Z,11.00
2019-05-12T14:56:14.060Z,10.60
2019-05-12T14:58:44.207Z,10.10
2019-05-12T15:01:14.268Z,10.00
2019-05-12T15:03:47.728Z,9.80
2019-05-12T15:06:14.338Z,9.60
2019-05-12T15:08:45.661Z,9.50
2019-05-12T15:11:16.158Z,9.50
2019-05-12T15:13:46.432Z,9.40
2019-05-12T15:16:16.672Z,9.20
2019-05-12T15:18:48.958Z,9.20
2019-05-12T15:21:21.381Z,9.30
2019-05-12T15:23:47.937Z,9.40
2019-05-12T15:26:19.774Z,9.30
2019-05-12T15:28:48.653Z,9.30
2019-05-12T15:31:19.266Z,9.30
2019-05-12T15:33:49.585Z,9.30
2019-05-12T15:36:20.089Z,9.30
2019-05-12T15:38:55.816Z,9.30
2019-05-12T15:41:23.703Z,9.40
2019-05-12T15:43:53.638Z,9.60
2019-05-12T15:46:24.537Z,9.70
2019-05-12T15:48:53.505Z,9.70
2019-05-12T15:51:23.983Z,9.90
2019-05-12T15:53:59.554Z,10.30
2019-05-12T15:56:26.283Z,11.00
2019-05-12T15:58:55.859Z,11.90
2019-05-12T16:01:25.747Z,12.00
2019-05-12T16:03:56.163Z,11.50
2019-05-12T16:06:26.560Z,11.20
2019-05-12T16:08:56.959Z,11.00
2019-05-12T16:11:27.392Z,10.90
2019-05-12T16:13:59.404Z,10.90
2019-05-12T16:16:28.065Z,10.60
2019-05-12T16:18:58.399Z,10.30
2019-05-12T16:21:28.823Z,10.20
2019-05-12T16:24:03.026Z,10.30
2019-05-12T16:26:29.640Z,10.50
2019-05-12T16:29:03.136Z,10.50
2019-05-12T16:31:30.523Z,10.40
2019-05-12T16:34:05.469Z,10.30
2019-05-12T16:36:33.568Z,10.50
2019-05-12T16:39:03.564Z,10.70
2019-05-12T16:41:34.385Z,10.50
2019-05-12T16:44:07.852Z,10.30
2019-05-12T16:46:34.014Z,10.20
2019-05-12T16:49:04.255Z,10.10
2019-05-12T16:51:35.142Z,10.10
2019-05-12T16:54:05.607Z,10.00
2019-05-12T16:59:15.340Z,9.70
2019-05-12T17:01:36.533Z,9.60
2019-05-12T17:04:06.837Z,9.50
2019-05-12T17:06:38.561Z,9.50
2019-05-12T17:09:08.551Z,9.50
2019-05-12T17:11:47.161Z,9.50
2019-05-12T17:14:09.501Z,9.40
2019-05-12T17:16:46.492Z,9.40
2019-05-12T17:19:10.747Z,9.40
2019-05-12T17:21:40.673Z,9.30
2019-05-12T17:24:11.048Z,9.20
2019-05-12T17:26:43.840Z,9.20
2019-05-12T17:29:13.709Z,9.10
2019-05-12T17:31:44.238Z,9.10
2019-05-12T17:34:14.282Z,9.10
2019-05-12T17:36:44.843Z,9.00
2019-05-12T17:39:13.929Z,8.90
2019-05-12T17:41:45.685Z,8.90
2019-05-12T17:44:15.518Z,8.90
2019-05-12T17:46:46.051Z,8.80
2019-05-12T17:49:25.636Z,8.80
2019-05-12T17:52:11.941Z,8.70
2019-05-12T17:54:36.456Z,8.60
2019-05-12T17:57:09.439Z,8.50
2019-05-12T17:59:37.318Z,8.50
2019-05-12T18:02:14.983Z,8.40
2019-05-12T18:07:13.288Z,8.40
2019-05-12T18:09:38.388Z,8.30
2019-05-12T18:12:08.754Z,8.30
2019-05-12T18:14:46.767Z,8.30
2019-05-12T18:17:09.541Z,8.30
2019-05-12T18:19:39.864Z,8.30
2019-05-12T18:22:10.262Z,8.30
2019-05-12T18:24:40.899Z,8.30
2019-05-12T18:27:13.469Z,8.30
2019-05-12T18:29:43.977Z,8.20
2019-05-12T18:32:13.848Z,8.30
2019-05-12T18:37:13.635Z,8.20
2019-05-12T18:39:43.735Z,8.20
2019-05-12T18:42:13.935Z,8.20
2019-05-12T18:44:43.981Z,8.20
2019-05-12T18:47:16.801Z,8.10
2019-05-12T18:49:48.013Z,8.10
2019-05-12T18:52:15.144Z,8.00
2019-05-12T18:54:52.076Z,8.00
2019-05-12T18:57:15.931Z,8.00
2019-05-12T18:59:54.388Z,8.00
2019-05-12T19:02:23.508Z,8.00
2019-05-12T19:04:47.164Z,8.00
2019-05-12T19:07:17.500Z,8.00
2019-05-12T19:09:47.836Z,7.90
2019-05-12T19:12:22.517Z,7.90
2019-05-12T19:14:51.746Z,7.90
2019-05-12T19:17:19.179Z,7.90
2019-05-12T19:19:53.975Z,7.80
2019-05-12T19:22:19.962Z,7.80
2019-05-12T19:24:55.374Z,7.80
2019-05-12T19:27:20.944Z,7.80
2019-05-12T19:29:50.841Z,7.80
2019-05-12T19:32:21.163Z,7.80
2019-05-12T19:34:54.464Z,7.80
2019-05-12T19:37:26.430Z,7.80
2019-05-12T19:39:53.834Z,7.70
2019-05-12T19:42:24.434Z,7.70
2019-05-12T19:44:56.642Z,7.80
2019-05-12T19:47:33.562Z,7.80
2019-05-12T19:49:59.566Z,7.80
2019-05-12T19:52:25.143Z,7.70
2019-05-12T19:54:55.637Z,7.70
2019-05-12T19:57:26.339Z,7.70
2019-05-12T19:59:56.784Z,7.70
2019-05-12T20:02:27.281Z,7.70
2019-05-12T20:04:57.655Z,7.70
2019-05-12T20:07:27.962Z,7.70
2019-05-12T20:10:00.515Z,7.70
2019-05-12T20:12:29.028Z,7.70
2019-05-12T20:14:59.460Z,7.70
2019-05-12T20:17:29.762Z,7.70
2019-05-12T20:20:00.162Z,7.70
2019-05-12T20:22:30.297Z,7.70
2019-05-12T20:25:00.530Z,7.80
2019-05-12T20:27:30.774Z,7.80
2019-05-12T20:30:01.111Z,7.80
2019-05-12T20:32:31.412Z,7.80
2019-05-12T20:35:04.057Z,7.80
2019-05-12T20:37:33.691Z,7.80
2019-05-12T20:40:05.357Z,7.80
2019-05-12T20:42:41.899Z,7.80
2019-05-12T20:47:33.909Z,7.80
2019-05-12T20:50:04.480Z,7.70
2019-05-12T20:52:39.274Z,7.70
2019-05-12T20:55:05.855Z,7.70
2019-05-12T20:57:40.162Z,7.60
2019-05-12T21:00:08.628Z,7.60
2019-05-12T21:02:37.755Z,7.70
2019-05-12T21:05:14.831Z,7.60
2019-05-12T21:07:39.012Z,7.60
2019-05-12T21:10:09.624Z,7.60
2019-05-12T21:15:16.332Z,7.60
2019-05-12T21:17:43.511Z,7.60
2019-05-12T21:20:14.373Z,7.60
2019-05-12T21:25:12.822Z,7.60
2019-05-12T21:27:44.773Z,7.60
2019-05-12T21:30:15.163Z,7.60
2019-05-12T21:32:47.384Z,7.60
2019-05-12T21:35:21.882Z,7.60
2019-05-12T21:37:46.581Z,7.60
2019-05-12T21:40:15.232Z,7.60
2019-05-12T21:42:45.687Z,7.60
2019-05-12T21:45:20.127Z,7.60
2019-05-12T21:47:46.828Z,7.60
2019-05-12T21:50:17.385Z,7.70
2019-05-12T21:52:48.000Z,7.60
2019-05-12T21:55:21.638Z,7.70
2019-05-12T21:57:48.816Z,7.70
2019-05-12T22:00:24.378Z,7.70
2019-05-12T22:02:56.540Z,7.70
2019-05-12T22:05:46.971Z,7.70
2019-05-12T22:07:55.619Z,7.70
2019-05-12T22:10:30.638Z,7.70
2019-05-12T22:13:00.587Z,7.60
2019-05-12T22:15:28.776Z,7.60
2019-05-12T22:18:03.984Z,7.70
2019-05-12T22:23:07.101Z,7.60
2019-05-12T22:25:34.509Z,7.60
2019-05-12T22:28:08.049Z,7.60
2019-05-12T22:33:08.667Z,7.50
2019-05-12T22:35:34.764Z,7.60
2019-05-12T22:38:15.307Z,7.50
2019-05-12T22:40:35.548Z,7.40
2019-05-12T22:43:07.161Z,7.40
2019-05-12T22:45:44.239Z,7.40
2019-05-12T22:48:07.311Z,7.40
2019-05-12T22:50:37.799Z,7.40
2019-05-12T22:53:08.169Z,7.40
2019-05-12T22:55:38.593Z,7.40
2019-05-12T22:58:10.942Z,7.30
2019-05-12T23:00:39.651Z,7.30
2019-05-12T23:03:11.972Z,7.30
2019-05-12T23:05:39.982Z,7.30
2019-05-12T23:08:10.521Z,7.30
2019-05-12T23:10:41.671Z,7.30
2019-05-12T23:13:13.412Z,7.20
2019-05-12T23:15:47.494Z,7.20
2019-05-12T23:18:11.534Z,7.30
2019-05-12T23:20:43.893Z,7.20
2019-05-12T23:23:15.468Z,7.20
2019-05-12T23:25:44.095Z,7.20
2019-05-12T23:30:43.881Z,7.10
2019-05-12T23:33:14.117Z,7.00
2019-05-12T23:35:44.338Z,7.00
2019-05-12T23:38:18.713Z,6.90
2019-05-12T23:40:44.150Z,6.80
2019-05-12T23:43:14.761Z,6.80
2019-05-12T23:45:45.416Z,6.80
2019-05-12T23:48:15.821Z,6.70
2019-05-12T23:50:46.154Z,6.60
2019-05-12T23:53:16.560Z,6.60
2019-05-12T23:55:47.053Z,6.60
2019-05-12T23:58:17.328Z,6.60
